sensor_id;sensor_type;location;lat;lon;timestamp;P1;durP1;ratioP1;P2;durP2;ratioP2
20988;SDS011;10653;47.052;15.410;2023-02-28T00:01:03;5.35;;;4.95;;
20988;SDS011;10653;47.052;15.410;2023-02-28T00:03:29;6.70;;;6.00;;
20988;SDS011;10653;47.052;15.410;2023-02-28T00:06:00;6.55;;;5.80;;
20988;SDS011;10653;47.052;15.410;2023-02-28T00:08:26;6.28;;;5.68;;
20988;SDS011;10653;47.052;15.410;2023-02-28T00:10:52;6.03;;;5.45;;
20988;SDS011;10653;47.052;15.410;2023-02-28T00:13:18;6.22;;;5.72;;
20988;SDS011;10653;47.052;15.410;2023-02-28T00:15:44;6.72;;;5.60;;
20988;SDS011;10653;47.052;15.410;2023-02-28T00:18:10;6.70;;;6.10;;
20988;SDS011;10653;47.052;15.410;2023-02-28T00:20:37;6.55;;;6.05;;
20988;SDS011;10653;47.052;15.410;2023-02-28T00:23:03;6.95;;;6.35;;
20988;SDS011;10653;47.052;15.410;2023-02-28T00:25:29;7.20;;;6.60;;
20988;SDS011;10653;47.052;15.410;2023-02-28T00:27:55;6.10;;;5.60;;
20988;SDS011;10653;47.052;15.410;2023-02-28T00:30:21;6.68;;;6.10;;
20988;SDS011;10653;47.052;15.410;2023-02-28T00:32:48;6.63;;;6.03;;
20988;SDS011;10653;47.052;15.410;2023-02-28T00:35:14;6.45;;;5.85;;
20988;SDS011;10653;47.052;15.410;2023-02-28T00:37:41;5.85;;;5.40;;
20988;SDS011;10653;47.052;15.410;2023-02-28T00:40:07;6.45;;;5.85;;
20988;SDS011;10653;47.052;15.410;2023-02-28T00:42:34;6.60;;;6.00;;
20988;SDS011;10653;47.052;15.410;2023-02-28T00:45:00;7.10;;;5.35;;
20988;SDS011;10653;47.052;15.410;2023-02-28T00:47:28;6.68;;;6.07;;
20988;SDS011;10653;47.052;15.410;2023-02-28T00:49:54;6.13;;;5.53;;
20988;SDS011;10653;47.052;15.410;2023-02-28T00:52:20;5.85;;;5.35;;
20988;SDS011;10653;47.052;15.410;2023-02-28T00:54:46;6.65;;;5.90;;
20988;SDS011;10653;47.052;15.410;2023-02-28T00:57:12;5.97;;;5.47;;
20988;SDS011;10653;47.052;15.410;2023-02-28T00:59:38;5.97;;;5.47;;
20988;SDS011;10653;47.052;15.410;2023-02-28T01:02:05;5.53;;;5.05;;
20988;SDS011;10653;47.052;15.410;2023-02-28T01:04:31;5.95;;;5.35;;
20988;SDS011;10653;47.052;15.410;2023-02-28T01:06:57;5.95;;;5.45;;
20988;SDS011;10653;47.052;15.410;2023-02-28T01:09:23;6.20;;;5.35;;
20988;SDS011;10653;47.052;15.410;2023-02-28T01:11:49;6.10;;;5.50;;
20988;SDS011;10653;47.052;15.410;2023-02-28T01:14:15;6.65;;;5.82;;
20988;SDS011;10653;47.052;15.410;2023-02-28T01:16:43;6.63;;;5.97;;
20988;SDS011;10653;47.052;15.410;2023-02-28T01:19:09;5.65;;;5.15;;
20988;SDS011;10653;47.052;15.410;2023-02-28T01:21:35;6.75;;;5.80;;
20988;SDS011;10653;47.052;15.410;2023-02-28T01:24:02;6.47;;;5.88;;
20988;SDS011;10653;47.052;15.410;2023-02-28T01:26:28;7.00;;;5.50;;
20988;SDS011;10653;47.052;15.410;2023-02-28T01:28:54;6.68;;;6.07;;
20988;SDS011;10653;47.052;15.410;2023-02-28T01:31:21;6.10;;;5.45;;
20988;SDS011;10653;47.052;15.410;2023-02-28T01:33:47;7.22;;;6.03;;
20988;SDS011;10653;47.052;15.410;2023-02-28T01:36:15;6.00;;;5.50;;
20988;SDS011;10653;47.052;15.410;2023-02-28T01:38:41;6.72;;;6.03;;
20988;SDS011;10653;47.052;15.410;2023-02-28T01:41:07;6.28;;;5.70;;
20988;SDS011;10653;47.052;15.410;2023-02-28T01:46:09;5.97;;;5.47;;
20988;SDS011;10653;47.052;15.410;2023-02-28T01:48:43;6.65;;;5.85;;
20988;SDS011;10653;47.052;15.410;2023-02-28T01:51:13;6.10;;;5.53;;
20988;SDS011;10653;47.052;15.410;2023-02-28T01:53:41;5.97;;;5.47;;
20988;SDS011;10653;47.052;15.410;2023-02-28T01:56:10;6.30;;;5.78;;
20988;SDS011;10653;47.052;15.410;2023-02-28T01:58:37;6.60;;;6.00;;
20988;SDS011;10653;47.052;15.410;2023-02-28T02:01:03;5.90;;;5.40;;
20988;SDS011;10653;47.052;15.410;2023-02-28T02:03:30;5.70;;;5.20;;
20988;SDS011;10653;47.052;15.410;2023-02-28T02:05:56;7.03;;;6.43;;
20988;SDS011;10653;47.052;15.410;2023-02-28T02:08:23;6.88;;;6.28;;
20988;SDS011;10653;47.052;15.410;2023-02-28T02:18:38;6.30;;;5.72;;
20988;SDS011;10653;47.052;15.410;2023-02-28T02:36:30;8.73;;;7.93;;
20988;SDS011;10653;47.052;15.410;2023-02-28T02:41:34;8.30;;;7.60;;
20988;SDS011;10653;47.052;15.410;2023-02-28T02:44:07;9.20;;;8.30;;
20988;SDS011;10653;47.052;15.410;2023-02-28T02:46:37;9.48;;;8.05;;
20988;SDS011;10653;47.052;15.410;2023-02-28T02:49:06;9.05;;;8.25;;
20988;SDS011;10653;47.052;15.410;2023-02-28T02:51:34;8.07;;;7.28;;
20988;SDS011;10653;47.052;15.410;2023-02-28T02:54:05;8.57;;;7.80;;
20988;SDS011;10653;47.052;15.410;2023-02-28T02:56:34;8.82;;;7.95;;
20988;SDS011;10653;47.052;15.410;2023-02-28T02:59:02;8.98;;;7.85;;
20988;SDS011;10653;47.052;15.410;2023-02-28T03:01:30;9.75;;;8.88;;
20988;SDS011;10653;47.052;15.410;2023-02-28T03:03:57;9.20;;;8.40;;
20988;SDS011;10653;47.052;15.410;2023-02-28T03:06:24;8.00;;;7.30;;
20988;SDS011;10653;47.052;15.410;2023-02-28T03:08:50;8.52;;;7.68;;
20988;SDS011;10653;47.052;15.410;2023-02-28T03:11:16;8.20;;;7.40;;
20988;SDS011;10653;47.052;15.410;2023-02-28T03:18:54;8.63;;;7.85;;
20988;SDS011;10653;47.052;15.410;2023-02-28T03:21:28;9.52;;;8.70;;
20988;SDS011;10653;47.052;15.410;2023-02-28T03:24:02;9.13;;;8.10;;
20988;SDS011;10653;47.052;15.410;2023-02-28T03:26:29;9.20;;;8.30;;
20988;SDS011;10653;47.052;15.410;2023-02-28T03:31:27;9.18;;;8.38;;
20988;SDS011;10653;47.052;15.410;2023-02-28T03:36:26;9.98;;;8.98;;
20988;SDS011;10653;47.052;15.410;2023-02-28T03:39:07;9.30;;;8.38;;
20988;SDS011;10653;47.052;15.410;2023-02-28T03:41:38;9.60;;;8.60;;
20988;SDS011;10653;47.052;15.410;2023-02-28T03:44:08;10.05;;;8.32;;
20988;SDS011;10653;47.052;15.410;2023-02-28T03:46:40;8.90;;;8.10;;
20988;SDS011;10653;47.052;15.410;2023-02-28T03:49:15;9.75;;;8.85;;
20988;SDS011;10653;47.052;15.410;2023-02-28T03:51:42;9.48;;;8.57;;
20988;SDS011;10653;47.052;15.410;2023-02-28T03:54:12;9.27;;;8.45;;
20988;SDS011;10653;47.052;15.410;2023-02-28T03:56:51;9.60;;;8.60;;
20988;SDS011;10653;47.052;15.410;2023-02-28T03:59:19;9.25;;;8.32;;
20988;SDS011;10653;47.052;15.410;2023-02-28T04:01:47;9.35;;;8.38;;
20988;SDS011;10653;47.052;15.410;2023-02-28T04:04:13;9.15;;;8.35;;
20988;SDS011;10653;47.052;15.410;2023-02-28T04:06:40;9.98;;;8.88;;
20988;SDS011;10653;47.052;15.410;2023-02-28T04:09:07;10.80;;;8.68;;
20988;SDS011;10653;47.052;15.410;2023-02-28T04:14:06;8.80;;;7.75;;
20988;SDS011;10653;47.052;15.410;2023-02-28T04:16:33;10.20;;;8.32;;
20988;SDS011;10653;47.052;15.410;2023-02-28T04:18:59;11.02;;;9.32;;
20988;SDS011;10653;47.052;15.410;2023-02-28T04:21:30;9.23;;;8.32;;
20988;SDS011;10653;47.052;15.410;2023-02-28T04:23:56;8.90;;;8.00;;
20988;SDS011;10653;47.052;15.410;2023-02-28T04:26:25;10.38;;;9.07;;
20988;SDS011;10653;47.052;15.410;2023-02-28T04:28:53;9.65;;;8.35;;
20988;SDS011;10653;47.052;15.410;2023-02-28T04:31:19;9.93;;;9.00;;
20988;SDS011;10653;47.052;15.410;2023-02-28T04:33:45;9.93;;;9.02;;
20988;SDS011;10653;47.052;15.410;2023-02-28T04:36:11;8.48;;;7.72;;
20988;SDS011;10653;47.052;15.410;2023-02-28T04:38:39;8.90;;;8.00;;
20988;SDS011;10653;47.052;15.410;2023-02-28T04:41:05;8.43;;;7.60;;
20988;SDS011;10653;47.052;15.410;2023-02-28T04:43:31;9.15;;;8.20;;
20988;SDS011;10653;47.052;15.410;2023-02-28T04:45:58;9.15;;;8.25;;
20988;SDS011;10653;47.052;15.410;2023-02-28T04:48:29;8.57;;;7.72;;
20988;SDS011;10653;47.052;15.410;2023-02-28T04:50:59;10.20;;;9.10;;
20988;SDS011;10653;47.052;15.410;2023-02-28T04:53:25;13.02;;;9.40;;
20988;SDS011;10653;47.052;15.410;2023-02-28T04:55:53;9.50;;;8.50;;
20988;SDS011;10653;47.052;15.410;2023-02-28T04:58:19;9.55;;;8.57;;
20988;SDS011;10653;47.052;15.410;2023-02-28T05:00:48;12.43;;;8.75;;
20988;SDS011;10653;47.052;15.410;2023-02-28T05:03:14;9.38;;;8.43;;
20988;SDS011;10653;47.052;15.410;2023-02-28T05:05:40;9.05;;;8.25;;
20988;SDS011;10653;47.052;15.410;2023-02-28T05:08:06;10.40;;;9.13;;
20988;SDS011;10653;47.052;15.410;2023-02-28T05:10:32;9.07;;;8.13;;
20988;SDS011;10653;47.052;15.410;2023-02-28T05:12:58;11.13;;;7.90;;
20988;SDS011;10653;47.052;15.410;2023-02-28T05:15:24;9.73;;;8.60;;
20988;SDS011;10653;47.052;15.410;2023-02-28T05:17:50;10.13;;;9.05;;
20988;SDS011;10653;47.052;15.410;2023-02-28T05:20:16;10.43;;;8.13;;
20988;SDS011;10653;47.052;15.410;2023-02-28T05:22:42;8.95;;;8.15;;
20988;SDS011;10653;47.052;15.410;2023-02-28T05:25:12;11.85;;;9.80;;
20988;SDS011;10653;47.052;15.410;2023-02-28T05:27:39;10.07;;;9.10;;
20988;SDS011;10653;47.052;15.410;2023-02-28T05:30:06;11.15;;;8.90;;
20988;SDS011;10653;47.052;15.410;2023-02-28T05:32:35;9.50;;;8.43;;
20988;SDS011;10653;47.052;15.410;2023-02-28T05:35:01;13.10;;;8.68;;
20988;SDS011;10653;47.052;15.410;2023-02-28T05:37:27;10.15;;;8.88;;
20988;SDS011;10653;47.052;15.410;2023-02-28T05:39:53;10.18;;;9.07;;
20988;SDS011;10653;47.052;15.410;2023-02-28T05:42:19;10.18;;;9.25;;
20988;SDS011;10653;47.052;15.410;2023-02-28T05:44:45;11.27;;;8.27;;
20988;SDS011;10653;47.052;15.410;2023-02-28T05:47:11;9.88;;;8.05;;
20988;SDS011;10653;47.052;15.410;2023-02-28T05:49:40;11.95;;;8.68;;
20988;SDS011;10653;47.052;15.410;2023-02-28T05:52:06;10.85;;;8.82;;
20988;SDS011;10653;47.052;15.410;2023-02-28T05:54:32;9.45;;;8.55;;
20988;SDS011;10653;47.052;15.410;2023-02-28T05:56:58;11.13;;;8.93;;
20988;SDS011;10653;47.052;15.410;2023-02-28T05:59:24;11.10;;;9.90;;
20988;SDS011;10653;47.052;15.410;2023-02-28T06:01:50;11.38;;;10.13;;
20988;SDS011;10653;47.052;15.410;2023-02-28T06:04:18;12.00;;;9.50;;
20988;SDS011;10653;47.052;15.410;2023-02-28T06:06:45;11.23;;;9.93;;
20988;SDS011;10653;47.052;15.410;2023-02-28T06:09:11;11.80;;;9.63;;
20988;SDS011;10653;47.052;15.410;2023-02-28T06:11:38;11.80;;;9.70;;
20988;SDS011;10653;47.052;15.410;2023-02-28T06:14:04;14.32;;;9.95;;
20988;SDS011;10653;47.052;15.410;2023-02-28T06:16:32;9.63;;;8.63;;
20988;SDS011;10653;47.052;15.410;2023-02-28T06:19:01;9.93;;;8.93;;
20988;SDS011;10653;47.052;15.410;2023-02-28T06:21:27;11.00;;;9.50;;
20988;SDS011;10653;47.052;15.410;2023-02-28T06:23:53;11.70;;;10.50;;
20988;SDS011;10653;47.052;15.410;2023-02-28T06:26:20;10.52;;;9.43;;
20988;SDS011;10653;47.052;15.410;2023-02-28T06:28:46;9.82;;;8.82;;
20988;SDS011;10653;47.052;15.410;2023-02-28T06:31:13;11.15;;;9.25;;
20988;SDS011;10653;47.052;15.410;2023-02-28T06:33:40;11.45;;;9.27;;
20988;SDS011;10653;47.052;15.410;2023-02-28T06:36:07;12.43;;;9.77;;
20988;SDS011;10653;47.052;15.410;2023-02-28T06:38:34;10.70;;;9.00;;
20988;SDS011;10653;47.052;15.410;2023-02-28T06:41:00;9.32;;;8.40;;
20988;SDS011;10653;47.052;15.410;2023-02-28T06:43:30;10.50;;;9.40;;
20988;SDS011;10653;47.052;15.410;2023-02-28T06:45:58;10.25;;;9.25;;
20988;SDS011;10653;47.052;15.410;2023-02-28T06:48:25;9.93;;;8.93;;
20988;SDS011;10653;47.052;15.410;2023-02-28T06:50:51;10.60;;;9.50;;
20988;SDS011;10653;47.052;15.410;2023-02-28T06:53:17;12.93;;;10.05;;
20988;SDS011;10653;47.052;15.410;2023-02-28T06:55:43;12.90;;;9.07;;
20988;SDS011;10653;47.052;15.410;2023-02-28T06:58:09;13.45;;;9.57;;
20988;SDS011;10653;47.052;15.410;2023-02-28T07:00:45;11.60;;;9.70;;
20988;SDS011;10653;47.052;15.410;2023-02-28T07:03:12;13.45;;;10.50;;
20988;SDS011;10653;47.052;15.410;2023-02-28T07:05:40;11.57;;;10.38;;
20988;SDS011;10653;47.052;15.410;2023-02-28T07:08:06;12.65;;;11.10;;
20988;SDS011;10653;47.052;15.410;2023-02-28T07:10:33;10.40;;;9.32;;
20988;SDS011;10653;47.052;15.410;2023-02-28T07:12:59;10.93;;;9.88;;
20988;SDS011;10653;47.052;15.410;2023-02-28T07:15:25;11.65;;;9.85;;
20988;SDS011;10653;47.052;15.410;2023-02-28T07:17:51;14.40;;;10.60;;
20988;SDS011;10653;47.052;15.410;2023-02-28T07:20:17;11.05;;;9.93;;
20988;SDS011;10653;47.052;15.410;2023-02-28T07:22:44;13.88;;;11.27;;
20988;SDS011;10653;47.052;15.410;2023-02-28T07:25:10;12.10;;;10.48;;
20988;SDS011;10653;47.052;15.410;2023-02-28T07:27:36;11.95;;;10.40;;
20988;SDS011;10653;47.052;15.410;2023-02-28T07:30:02;11.63;;;10.43;;
20988;SDS011;10653;47.052;15.410;2023-02-28T07:32:28;13.18;;;11.05;;
20988;SDS011;10653;47.052;15.410;2023-02-28T07:34:55;12.05;;;10.40;;
20988;SDS011;10653;47.052;15.410;2023-02-28T07:37:21;12.27;;;11.05;;
20988;SDS011;10653;47.052;15.410;2023-02-28T07:39:47;14.63;;;11.13;;
20988;SDS011;10653;47.052;15.410;2023-02-28T07:42:13;13.50;;;10.50;;
20988;SDS011;10653;47.052;15.410;2023-02-28T07:44:39;12.18;;;10.88;;
20988;SDS011;10653;47.052;15.410;2023-02-28T07:47:08;24.88;;;18.08;;
20988;SDS011;10653;47.052;15.410;2023-02-28T07:49:35;24.92;;;18.50;;
20988;SDS011;10653;47.052;15.410;2023-02-28T07:52:02;17.90;;;14.57;;
20988;SDS011;10653;47.052;15.410;2023-02-28T07:54:28;19.95;;;15.80;;
20988;SDS011;10653;47.052;15.410;2023-02-28T07:56:54;21.42;;;15.80;;
20988;SDS011;10653;47.052;15.410;2023-02-28T07:59:20;14.30;;;12.60;;
20988;SDS011;10653;47.052;15.410;2023-02-28T08:01:46;14.65;;;12.90;;
20988;SDS011;10653;47.052;15.410;2023-02-28T08:04:15;12.88;;;11.48;;
20988;SDS011;10653;47.052;15.410;2023-02-28T08:06:41;14.13;;;12.55;;
20988;SDS011;10653;47.052;15.410;2023-02-28T08:09:07;18.63;;;12.95;;
20988;SDS011;10653;47.052;15.410;2023-02-28T08:11:33;12.63;;;10.82;;
20988;SDS011;10653;47.052;15.410;2023-02-28T08:13:59;13.07;;;11.02;;
20988;SDS011;10653;47.052;15.410;2023-02-28T08:16:25;11.88;;;10.77;;
20988;SDS011;10653;47.052;15.410;2023-02-28T08:18:51;13.45;;;11.10;;
20988;SDS011;10653;47.052;15.410;2023-02-28T08:21:18;12.45;;;11.15;;
20988;SDS011;10653;47.052;15.410;2023-02-28T08:23:48;11.68;;;10.40;;
20988;SDS011;10653;47.052;15.410;2023-02-28T08:26:15;13.57;;;12.07;;
20988;SDS011;10653;47.052;15.410;2023-02-28T08:28:41;12.25;;;10.48;;
20988;SDS011;10653;47.052;15.410;2023-02-28T08:31:11;11.90;;;10.68;;
20988;SDS011;10653;47.052;15.410;2023-02-28T08:33:38;11.60;;;10.50;;
20988;SDS011;10653;47.052;15.410;2023-02-28T08:36:05;15.18;;;12.27;;
20988;SDS011;10653;47.052;15.410;2023-02-28T08:38:31;11.73;;;10.55;;
20988;SDS011;10653;47.052;15.410;2023-02-28T08:40:58;13.25;;;11.65;;
20988;SDS011;10653;47.052;15.410;2023-02-28T08:43:25;15.25;;;12.15;;
20988;SDS011;10653;47.052;15.410;2023-02-28T08:45:51;21.95;;;12.80;;
20988;SDS011;10653;47.052;15.410;2023-02-28T08:48:17;12.43;;;11.23;;
20988;SDS011;10653;47.052;15.410;2023-02-28T08:50:43;14.60;;;13.00;;
20988;SDS011;10653;47.052;15.410;2023-02-28T08:53:09;13.43;;;11.27;;
20988;SDS011;10653;47.052;15.410;2023-02-28T08:55:35;14.18;;;12.48;;
20988;SDS011;10653;47.052;15.410;2023-02-28T08:58:01;13.20;;;11.57;;
20988;SDS011;10653;47.052;15.410;2023-02-28T09:00:27;14.00;;;11.90;;
20988;SDS011;10653;47.052;15.410;2023-02-28T09:02:53;13.50;;;11.77;;
20988;SDS011;10653;47.052;15.410;2023-02-28T09:05:20;12.05;;;10.93;;
20988;SDS011;10653;47.052;15.410;2023-02-28T09:07:46;13.95;;;11.48;;
20988;SDS011;10653;47.052;15.410;2023-02-28T09:10:12;17.27;;;12.25;;
20988;SDS011;10653;47.052;15.410;2023-02-28T09:12:38;14.53;;;11.07;;
20988;SDS011;10653;47.052;15.410;2023-02-28T09:15:04;12.50;;;11.25;;
20988;SDS011;10653;47.052;15.410;2023-02-28T09:17:30;13.00;;;11.70;;
20988;SDS011;10653;47.052;15.410;2023-02-28T09:19:56;14.43;;;12.05;;
20988;SDS011;10653;47.052;15.410;2023-02-28T09:22:23;13.25;;;11.88;;
20988;SDS011;10653;47.052;15.410;2023-02-28T09:24:49;15.18;;;13.57;;
20988;SDS011;10653;47.052;15.410;2023-02-28T09:27:15;13.93;;;12.52;;
20988;SDS011;10653;47.052;15.410;2023-02-28T09:29:41;13.27;;;11.93;;
20988;SDS011;10653;47.052;15.410;2023-02-28T09:32:07;14.32;;;12.77;;
20988;SDS011;10653;47.052;15.410;2023-02-28T09:34:33;14.07;;;12.45;;
20988;SDS011;10653;47.052;15.410;2023-02-28T09:37:01;14.43;;;12.90;;
20988;SDS011;10653;47.052;15.410;2023-02-28T09:39:27;13.10;;;11.90;;
20988;SDS011;10653;47.052;15.410;2023-02-28T09:41:54;17.52;;;11.95;;
20988;SDS011;10653;47.052;15.410;2023-02-28T09:46:55;13.88;;;12.55;;
20988;SDS011;10653;47.052;15.410;2023-02-28T09:49:25;14.45;;;12.93;;
20988;SDS011;10653;47.052;15.410;2023-02-28T09:51:58;15.38;;;12.52;;
20988;SDS011;10653;47.052;15.410;2023-02-28T09:54:28;14.00;;;12.52;;
20988;SDS011;10653;47.052;15.410;2023-02-28T09:57:04;13.80;;;12.25;;
20988;SDS011;10653;47.052;15.410;2023-02-28T10:04:37;18.05;;;13.70;;
20988;SDS011;10653;47.052;15.410;2023-02-28T10:07:10;14.18;;;12.77;;
20988;SDS011;10653;47.052;15.410;2023-02-28T10:09:42;15.30;;;12.00;;
20988;SDS011;10653;47.052;15.410;2023-02-28T10:12:09;17.55;;;13.43;;
20988;SDS011;10653;47.052;15.410;2023-02-28T10:14:36;15.63;;;12.60;;
20988;SDS011;10653;47.052;15.410;2023-02-28T10:17:06;13.45;;;12.15;;
20988;SDS011;10653;47.052;15.410;2023-02-28T10:24:49;16.57;;;13.10;;
20988;SDS011;10653;47.052;15.410;2023-02-28T10:27:21;13.80;;;11.93;;
20988;SDS011;10653;47.052;15.410;2023-02-28T10:29:51;14.80;;;12.65;;
20988;SDS011;10653;47.052;15.410;2023-02-28T10:32:18;16.55;;;11.43;;
20988;SDS011;10653;47.052;15.410;2023-02-28T10:34:45;15.15;;;10.82;;
20988;SDS011;10653;47.052;15.410;2023-02-28T10:37:16;17.23;;;12.57;;
20988;SDS011;10653;47.052;15.410;2023-02-28T10:39:44;14.07;;;11.93;;
20988;SDS011;10653;47.052;15.410;2023-02-28T10:44:45;14.70;;;12.07;;
20988;SDS011;10653;47.052;15.410;2023-02-28T10:47:15;17.75;;;11.65;;
20988;SDS011;10653;47.052;15.410;2023-02-28T10:49:48;13.18;;;11.68;;
20988;SDS011;10653;47.052;15.410;2023-02-28T10:52:32;14.77;;;11.35;;
20988;SDS011;10653;47.052;15.410;2023-02-28T10:55:16;14.63;;;11.00;;
20988;SDS011;10653;47.052;15.410;2023-02-28T10:57:45;13.55;;;11.13;;
20988;SDS011;10653;47.052;15.410;2023-02-28T11:00:16;13.73;;;11.77;;
20988;SDS011;10653;47.052;15.410;2023-02-28T11:02:43;16.30;;;11.45;;
20988;SDS011;10653;47.052;15.410;2023-02-28T11:05:25;14.45;;;12.38;;
20988;SDS011;10653;47.052;15.410;2023-02-28T11:07:55;13.15;;;11.18;;
20988;SDS011;10653;47.052;15.410;2023-02-28T11:10:22;14.13;;;11.20;;
20988;SDS011;10653;47.052;15.410;2023-02-28T11:12:50;15.85;;;12.68;;
20988;SDS011;10653;47.052;15.410;2023-02-28T11:15:27;18.17;;;12.68;;
20988;SDS011;10653;47.052;15.410;2023-02-28T11:18:00;15.35;;;12.55;;
20988;SDS011;10653;47.052;15.410;2023-02-28T11:20:28;16.08;;;12.75;;
20988;SDS011;10653;47.052;15.410;2023-02-28T11:22:55;15.80;;;12.30;;
20988;SDS011;10653;47.052;15.410;2023-02-28T11:25:26;16.57;;;12.27;;
20988;SDS011;10653;47.052;15.410;2023-02-28T11:28:00;18.53;;;11.73;;
20988;SDS011;10653;47.052;15.410;2023-02-28T11:32:56;14.98;;;11.85;;
20988;SDS011;10653;47.052;15.410;2023-02-28T11:35:33;17.00;;;13.00;;
20988;SDS011;10653;47.052;15.410;2023-02-28T11:38:00;17.70;;;12.50;;
20988;SDS011;10653;47.052;15.410;2023-02-28T11:42:55;15.77;;;11.87;;
20988;SDS011;10653;47.052;15.410;2023-02-28T11:55:39;17.17;;;13.30;;
20988;SDS011;10653;47.052;15.410;2023-02-28T11:58:20;17.60;;;12.47;;
20988;SDS011;10653;47.052;15.410;2023-02-28T12:01:01;12.40;;;10.67;;
20988;SDS011;10653;47.052;15.410;2023-02-28T12:06:01;18.80;;;13.37;;
20988;SDS011;10653;47.052;15.410;2023-02-28T12:21:48;15.60;;;12.10;;
20988;SDS011;10653;47.052;15.410;2023-02-28T12:24:21;15.57;;;12.20;;
20988;SDS011;10653;47.052;15.410;2023-02-28T12:26:51;16.73;;;12.40;;
20988;SDS011;10653;47.052;15.410;2023-02-28T12:29:21;13.83;;;12.07;;
20988;SDS011;10653;47.052;15.410;2023-02-28T12:31:56;13.87;;;10.87;;
20988;SDS011;10653;47.052;15.410;2023-02-28T12:34:29;16.37;;;11.60;;
20988;SDS011;10653;47.052;15.410;2023-02-28T12:36:58;19.80;;;15.23;;
20988;SDS011;10653;47.052;15.410;2023-02-28T12:39:28;18.37;;;14.10;;
20988;SDS011;10653;47.052;15.410;2023-02-28T12:41:59;17.83;;;13.80;;
20988;SDS011;10653;47.052;15.410;2023-02-28T12:44:32;15.30;;;12.67;;
20988;SDS011;10653;47.052;15.410;2023-02-28T12:47:00;16.13;;;12.67;;
20988;SDS011;10653;47.052;15.410;2023-02-28T12:49:33;17.53;;;12.90;;
20988;SDS011;10653;47.052;15.410;2023-02-28T12:52:00;16.13;;;12.70;;
20988;SDS011;10653;47.052;15.410;2023-02-28T12:59:53;15.87;;;12.57;;
20988;SDS011;10653;47.052;15.410;2023-02-28T13:02:22;19.00;;;13.40;;
20988;SDS011;10653;47.052;15.410;2023-02-28T13:10:04;16.47;;;11.83;;
20988;SDS011;10653;47.052;15.410;2023-02-28T13:12:32;15.50;;;12.40;;
20988;SDS011;10653;47.052;15.410;2023-02-28T13:15:04;14.40;;;12.07;;
20988;SDS011;10653;47.052;15.410;2023-02-28T13:17:30;15.90;;;12.23;;
20988;SDS011;10653;47.052;15.410;2023-02-28T13:19:57;18.67;;;12.30;;
20988;SDS011;10653;47.052;15.410;2023-02-28T13:24:50;18.53;;;12.80;;
20988;SDS011;10653;47.052;15.410;2023-02-28T13:27:22;16.53;;;12.40;;
20988;SDS011;10653;47.052;15.410;2023-02-28T13:29:50;19.70;;;13.13;;
20988;SDS011;10653;47.052;15.410;2023-02-28T13:32:20;19.13;;;12.83;;
20988;SDS011;10653;47.052;15.410;2023-02-28T13:42:35;16.53;;;13.10;;
20988;SDS011;10653;47.052;15.410;2023-02-28T13:50:20;18.20;;;13.40;;
20988;SDS011;10653;47.052;15.410;2023-02-28T13:53:18;20.60;;;13.33;;
20988;SDS011;10653;47.052;15.410;2023-02-28T14:06:07;20.00;;;12.37;;
20988;SDS011;10653;47.052;15.410;2023-02-28T14:08:33;14.83;;;12.90;;
20988;SDS011;10653;47.052;15.410;2023-02-28T14:11:08;17.60;;;13.00;;
20988;SDS011;10653;47.052;15.410;2023-02-28T14:13:42;18.07;;;12.83;;
20988;SDS011;10653;47.052;15.410;2023-02-28T14:16:15;18.80;;;13.60;;
20988;SDS011;10653;47.052;15.410;2023-02-28T14:18:48;17.80;;;13.00;;
20988;SDS011;10653;47.052;15.410;2023-02-28T14:21:23;17.90;;;12.83;;
20988;SDS011;10653;47.052;15.410;2023-02-28T14:36:50;14.37;;;12.30;;
20988;SDS011;10653;47.052;15.410;2023-02-28T14:39:22;19.27;;;14.27;;
20988;SDS011;10653;47.052;15.410;2023-02-28T14:41:48;15.50;;;13.63;;
20988;SDS011;10653;47.052;15.410;2023-02-28T14:44:24;16.60;;;12.87;;
20988;SDS011;10653;47.052;15.410;2023-02-28T14:46:54;16.20;;;12.70;;
20988;SDS011;10653;47.052;15.410;2023-02-28T14:49:28;14.67;;;11.40;;
20988;SDS011;10653;47.052;15.410;2023-02-28T14:54:30;15.10;;;12.23;;
20988;SDS011;10653;47.052;15.410;2023-02-28T14:56:56;13.57;;;12.13;;
20988;SDS011;10653;47.052;15.410;2023-02-28T14:59:24;14.30;;;12.20;;
20988;SDS011;10653;47.052;15.410;2023-02-28T15:01:50;12.93;;;11.40;;
20988;SDS011;10653;47.052;15.410;2023-02-28T15:04:25;15.57;;;11.43;;
20988;SDS011;10653;47.052;15.410;2023-02-28T15:07:12;14.30;;;12.00;;
20988;SDS011;10653;47.052;15.410;2023-02-28T15:09:39;14.87;;;10.80;;
20988;SDS011;10653;47.052;15.410;2023-02-28T15:12:05;16.47;;;11.90;;
20988;SDS011;10653;47.052;15.410;2023-02-28T15:14:31;15.33;;;11.33;;
20988;SDS011;10653;47.052;15.410;2023-02-28T15:16:59;13.80;;;10.90;;
20988;SDS011;10653;47.052;15.410;2023-02-28T15:19:28;13.03;;;10.80;;
20988;SDS011;10653;47.052;15.410;2023-02-28T15:22:00;11.70;;;10.20;;
20988;SDS011;10653;47.052;15.410;2023-02-28T15:24:30;14.17;;;11.23;;
20988;SDS011;10653;47.052;15.410;2023-02-28T15:26:58;14.43;;;10.90;;
20988;SDS011;10653;47.052;15.410;2023-02-28T15:29:25;13.33;;;10.63;;
20988;SDS011;10653;47.052;15.410;2023-02-28T15:32:02;13.37;;;11.03;;
20988;SDS011;10653;47.052;15.410;2023-02-28T15:34:33;15.37;;;11.87;;
20988;SDS011;10653;47.052;15.410;2023-02-28T15:37:00;15.50;;;11.67;;
20988;SDS011;10653;47.052;15.410;2023-02-28T15:39:26;13.83;;;11.43;;
20988;SDS011;10653;47.052;15.410;2023-02-28T15:42:11;15.47;;;11.40;;
20988;SDS011;10653;47.052;15.410;2023-02-28T15:44:38;15.90;;;11.40;;
20988;SDS011;10653;47.052;15.410;2023-02-28T15:47:04;15.83;;;11.33;;
20988;SDS011;10653;47.052;15.410;2023-02-28T15:49:36;12.07;;;9.83;;
20988;SDS011;10653;47.052;15.410;2023-02-28T15:52:03;15.90;;;12.53;;
20988;SDS011;10653;47.052;15.410;2023-02-28T15:54:31;13.70;;;10.87;;
20988;SDS011;10653;47.052;15.410;2023-02-28T15:57:01;13.10;;;11.70;;
20988;SDS011;10653;47.052;15.410;2023-02-28T15:59:29;14.90;;;10.97;;
20988;SDS011;10653;47.052;15.410;2023-02-28T16:02:03;14.53;;;11.07;;
20988;SDS011;10653;47.052;15.410;2023-02-28T16:04:29;15.37;;;11.87;;
20988;SDS011;10653;47.052;15.410;2023-02-28T16:09:25;14.47;;;10.47;;
20988;SDS011;10653;47.052;15.410;2023-02-28T16:11:53;17.47;;;11.40;;
20988;SDS011;10653;47.052;15.410;2023-02-28T16:14:22;14.53;;;10.80;;
20988;SDS011;10653;47.052;15.410;2023-02-28T16:16:50;15.40;;;11.60;;
20988;SDS011;10653;47.052;15.410;2023-02-28T16:19:17;14.30;;;12.20;;
20988;SDS011;10653;47.052;15.410;2023-02-28T16:21:43;15.57;;;12.40;;
20988;SDS011;10653;47.052;15.410;2023-02-28T16:24:09;16.50;;;12.90;;
20988;SDS011;10653;47.052;15.410;2023-02-28T16:26:35;14.63;;;11.55;;
20988;SDS011;10653;47.052;15.410;2023-02-28T16:29:04;18.52;;;12.20;;
20988;SDS011;10653;47.052;15.410;2023-02-28T16:31:30;13.00;;;11.63;;
20988;SDS011;10653;47.052;15.410;2023-02-28T16:33:58;13.68;;;12.27;;
20988;SDS011;10653;47.052;15.410;2023-02-28T16:36:24;15.93;;;12.80;;
20988;SDS011;10653;47.052;15.410;2023-02-28T16:38:51;16.70;;;13.40;;
20988;SDS011;10653;47.052;15.410;2023-02-28T16:41:26;18.08;;;13.15;;
20988;SDS011;10653;47.052;15.410;2023-02-28T16:43:53;16.38;;;12.15;;
20988;SDS011;10653;47.052;15.410;2023-02-28T16:46:23;22.40;;;14.90;;